Terminal Aerodrome Forecast
Issued by NWS

Home | Current Version | Previous Version | Text Only | Print | Product List | Glossary On
Versions: 1 2 3 4 5 6 7 8 9 10 11 12 13 14 15 16 17 18 19 20 21 22 23 24 25 26 27 28 29
000
FTUS41 KGYX 080901 AAC
TAFAUG
TAF AMD
KAUG 080901Z 0809/0906 00000KT 1/2SM FZFG VV002
      TEMPO 0809/0810 1SM BR
     FM081000 VRB03KT 4SM BR SCT002 BKN100
     FM081200 27006KT P6SM BKN050 BKN100=

USA.gov is the U.S. government's official web portal to all federal, state and local government web resources and services.